sensor_id;sensor_type;location;lat;lon;timestamp;P1;durP1;ratioP1;P2;durP2;ratioP2
34741;SDS011;20968;42.696;23.360;2024-01-10T00:01:30;139.65;;;122.35;;
34741;SDS011;20968;42.696;23.360;2024-01-10T00:03:56;117.75;;;79.13;;
34741;SDS011;20968;42.696;23.360;2024-01-10T00:06:21;172.57;;;89.93;;
34741;SDS011;20968;42.696;23.360;2024-01-10T00:08:48;121.80;;;86.45;;
34741;SDS011;20968;42.696;23.360;2024-01-10T00:11:14;107.78;;;69.35;;
34741;SDS011;20968;42.696;23.360;2024-01-10T00:13:39;110.80;;;78.45;;
34741;SDS011;20968;42.696;23.360;2024-01-10T00:16:05;127.70;;;95.13;;
34741;SDS011;20968;42.696;23.360;2024-01-10T00:18:31;99.47;;;69.57;;
34741;SDS011;20968;42.696;23.360;2024-01-10T00:20:56;160.30;;;73.68;;
34741;SDS011;20968;42.696;23.360;2024-01-10T00:23:22;85.00;;;76.30;;
34741;SDS011;20968;42.696;23.360;2024-01-10T00:25:48;127.85;;;83.35;;
34741;SDS011;20968;42.696;23.360;2024-01-10T00:28:14;169.20;;;76.35;;
34741;SDS011;20968;42.696;23.360;2024-01-10T00:30:44;98.13;;;73.80;;
34741;SDS011;20968;42.696;23.360;2024-01-10T00:33:12;208.20;;;93.50;;
34741;SDS011;20968;42.696;23.360;2024-01-10T00:35:38;91.95;;;58.45;;
34741;SDS011;20968;42.696;23.360;2024-01-10T00:38:03;83.80;;;61.25;;
34741;SDS011;20968;42.696;23.360;2024-01-10T00:40:29;115.85;;;72.15;;
34741;SDS011;20968;42.696;23.360;2024-01-10T00:42:54;158.20;;;87.22;;
34741;SDS011;20968;42.696;23.360;2024-01-10T00:45:20;106.85;;;79.50;;
34741;SDS011;20968;42.696;23.360;2024-01-10T00:47:45;85.32;;;76.47;;
34741;SDS011;20968;42.696;23.360;2024-01-10T00:50:11;144.73;;;75.70;;
34741;SDS011;20968;42.696;23.360;2024-01-10T00:52:36;99.32;;;79.45;;
34741;SDS011;20968;42.696;23.360;2024-01-10T00:55:02;95.57;;;69.88;;
34741;SDS011;20968;42.696;23.360;2024-01-10T00:57:27;118.85;;;73.60;;
34741;SDS011;20968;42.696;23.360;2024-01-10T00:59:52;95.63;;;70.65;;
34741;SDS011;20968;42.696;23.360;2024-01-10T01:02:18;142.07;;;75.05;;
34741;SDS011;20968;42.696;23.360;2024-01-10T01:04:43;134.77;;;78.55;;
34741;SDS011;20968;42.696;23.360;2024-01-10T01:07:09;196.88;;;101.80;;
34741;SDS011;20968;42.696;23.360;2024-01-10T01:09:34;96.20;;;73.03;;
34741;SDS011;20968;42.696;23.360;2024-01-10T01:12:00;104.45;;;59.33;;
34741;SDS011;20968;42.696;23.360;2024-01-10T01:14:25;121.13;;;74.07;;
34741;SDS011;20968;42.696;23.360;2024-01-10T01:16:51;138.25;;;75.70;;
34741;SDS011;20968;42.696;23.360;2024-01-10T01:19:17;98.53;;;76.53;;
34741;SDS011;20968;42.696;23.360;2024-01-10T01:21:42;92.05;;;74.65;;
34741;SDS011;20968;42.696;23.360;2024-01-10T01:24:08;85.80;;;60.03;;
34741;SDS011;20968;42.696;23.360;2024-01-10T01:26:33;134.77;;;88.40;;
34741;SDS011;20968;42.696;23.360;2024-01-10T01:28:59;65.72;;;53.95;;
34741;SDS011;20968;42.696;23.360;2024-01-10T01:31:24;149.05;;;90.45;;
34741;SDS011;20968;42.696;23.360;2024-01-10T01:33:50;159.68;;;102.28;;
34741;SDS011;20968;42.696;23.360;2024-01-10T01:36:15;161.48;;;100.18;;
34741;SDS011;20968;42.696;23.360;2024-01-10T01:38:41;100.05;;;75.65;;
34741;SDS011;20968;42.696;23.360;2024-01-10T01:41:06;133.10;;;95.07;;
34741;SDS011;20968;42.696;23.360;2024-01-10T01:43:31;171.18;;;113.82;;
34741;SDS011;20968;42.696;23.360;2024-01-10T01:45:57;165.63;;;93.70;;
34741;SDS011;20968;42.696;23.360;2024-01-10T01:48:23;183.55;;;124.60;;
34741;SDS011;20968;42.696;23.360;2024-01-10T01:51:08;239.20;;;139.60;;
34741;SDS011;20968;42.696;23.360;2024-01-10T01:53:35;619.88;;;305.33;;
34741;SDS011;20968;42.696;23.360;2024-01-10T01:56:02;489.40;;;316.95;;
34741;SDS011;20968;42.696;23.360;2024-01-10T01:58:31;342.92;;;187.20;;
34741;SDS011;20968;42.696;23.360;2024-01-10T02:00:56;581.58;;;332.73;;
34741;SDS011;20968;42.696;23.360;2024-01-10T02:03:22;592.08;;;325.75;;
34741;SDS011;20968;42.696;23.360;2024-01-10T02:05:48;1026.80;;;467.58;;
34741;SDS011;20968;42.696;23.360;2024-01-10T02:08:14;995.40;;;454.27;;
34741;SDS011;20968;42.696;23.360;2024-01-10T02:10:40;764.78;;;419.63;;
34741;SDS011;20968;42.696;23.360;2024-01-10T02:13:05;975.80;;;439.70;;
34741;SDS011;20968;42.696;23.360;2024-01-10T02:15:33;888.42;;;452.58;;
34741;SDS011;20968;42.696;23.360;2024-01-10T02:18:00;881.75;;;434.80;;
34741;SDS011;20968;42.696;23.360;2024-01-10T02:20:25;881.38;;;463.20;;
34741;SDS011;20968;42.696;23.360;2024-01-10T02:22:51;1011.75;;;465.25;;
34741;SDS011;20968;42.696;23.360;2024-01-10T02:25:16;936.95;;;510.90;;
34741;SDS011;20968;42.696;23.360;2024-01-10T02:27:41;1128.45;;;474.77;;
34741;SDS011;20968;42.696;23.360;2024-01-10T02:30:07;1035.93;;;491.60;;
34741;SDS011;20968;42.696;23.360;2024-01-10T02:32:34;905.88;;;488.63;;
34741;SDS011;20968;42.696;23.360;2024-01-10T02:35:00;925.58;;;437.98;;
34741;SDS011;20968;42.696;23.360;2024-01-10T02:37:25;814.80;;;376.13;;
34741;SDS011;20968;42.696;23.360;2024-01-10T02:39:50;854.88;;;453.05;;
34741;SDS011;20968;42.696;23.360;2024-01-10T02:42:16;911.45;;;499.30;;
34741;SDS011;20968;42.696;23.360;2024-01-10T02:44:42;832.50;;;398.02;;
34741;SDS011;20968;42.696;23.360;2024-01-10T02:47:07;607.75;;;369.02;;
34741;SDS011;20968;42.696;23.360;2024-01-10T02:49:33;809.53;;;423.42;;
34741;SDS011;20968;42.696;23.360;2024-01-10T02:51:59;678.28;;;345.75;;
34741;SDS011;20968;42.696;23.360;2024-01-10T02:54:24;627.53;;;325.48;;
34741;SDS011;20968;42.696;23.360;2024-01-10T02:56:50;709.42;;;339.98;;
34741;SDS011;20968;42.696;23.360;2024-01-10T02:59:16;420.25;;;233.70;;
34741;SDS011;20968;42.696;23.360;2024-01-10T03:01:41;402.20;;;266.60;;
34741;SDS011;20968;42.696;23.360;2024-01-10T03:04:07;517.60;;;266.67;;
34741;SDS011;20968;42.696;23.360;2024-01-10T03:06:32;454.48;;;252.88;;
34741;SDS011;20968;42.696;23.360;2024-01-10T03:08:57;419.67;;;232.77;;
34741;SDS011;20968;42.696;23.360;2024-01-10T03:11:23;580.35;;;333.85;;
34741;SDS011;20968;42.696;23.360;2024-01-10T03:13:49;621.05;;;278.65;;
34741;SDS011;20968;42.696;23.360;2024-01-10T03:16:17;661.30;;;336.67;;
34741;SDS011;20968;42.696;23.360;2024-01-10T03:18:42;557.05;;;288.63;;
34741;SDS011;20968;42.696;23.360;2024-01-10T03:21:08;521.15;;;283.98;;
34741;SDS011;20968;42.696;23.360;2024-01-10T03:23:33;444.52;;;253.02;;
34741;SDS011;20968;42.696;23.360;2024-01-10T03:25:58;556.88;;;296.65;;
34741;SDS011;20968;42.696;23.360;2024-01-10T03:28:24;553.53;;;289.50;;
34741;SDS011;20968;42.696;23.360;2024-01-10T03:30:49;418.85;;;223.18;;
34741;SDS011;20968;42.696;23.360;2024-01-10T03:33:15;369.42;;;210.60;;
34741;SDS011;20968;42.696;23.360;2024-01-10T03:35:40;408.33;;;238.10;;
34741;SDS011;20968;42.696;23.360;2024-01-10T03:38:06;356.75;;;237.77;;
34741;SDS011;20968;42.696;23.360;2024-01-10T03:40:32;454.88;;;223.35;;
34741;SDS011;20968;42.696;23.360;2024-01-10T03:42:58;586.38;;;318.88;;
34741;SDS011;20968;42.696;23.360;2024-01-10T03:45:23;528.80;;;284.20;;
34741;SDS011;20968;42.696;23.360;2024-01-10T03:47:49;703.17;;;299.05;;
34741;SDS011;20968;42.696;23.360;2024-01-10T03:50:18;489.35;;;298.75;;
34741;SDS011;20968;42.696;23.360;2024-01-10T03:52:44;774.03;;;375.92;;
34741;SDS011;20968;42.696;23.360;2024-01-10T03:55:11;596.13;;;308.08;;
34741;SDS011;20968;42.696;23.360;2024-01-10T03:57:38;635.65;;;346.95;;
34741;SDS011;20968;42.696;23.360;2024-01-10T04:00:03;800.72;;;360.98;;
34741;SDS011;20968;42.696;23.360;2024-01-10T04:02:31;674.25;;;390.10;;
34741;SDS011;20968;42.696;23.360;2024-01-10T04:04:57;602.38;;;355.27;;
34741;SDS011;20968;42.696;23.360;2024-01-10T04:07:22;606.20;;;322.40;;
34741;SDS011;20968;42.696;23.360;2024-01-10T04:09:48;714.47;;;348.50;;
34741;SDS011;20968;42.696;23.360;2024-01-10T04:12:13;648.13;;;319.55;;
34741;SDS011;20968;42.696;23.360;2024-01-10T04:14:38;728.65;;;370.92;;
34741;SDS011;20968;42.696;23.360;2024-01-10T04:17:04;854.67;;;459.80;;
34741;SDS011;20968;42.696;23.360;2024-01-10T04:19:31;641.53;;;358.02;;
34741;SDS011;20968;42.696;23.360;2024-01-10T04:21:57;993.22;;;474.98;;
34741;SDS011;20968;42.696;23.360;2024-01-10T04:24:23;523.13;;;252.93;;
34741;SDS011;20968;42.696;23.360;2024-01-10T04:26:48;550.03;;;341.90;;
34741;SDS011;20968;42.696;23.360;2024-01-10T04:29:14;483.77;;;288.33;;
34741;SDS011;20968;42.696;23.360;2024-01-10T04:31:39;604.35;;;335.00;;
34741;SDS011;20968;42.696;23.360;2024-01-10T04:34:04;417.58;;;255.30;;
34741;SDS011;20968;42.696;23.360;2024-01-10T04:36:30;565.40;;;307.27;;
34741;SDS011;20968;42.696;23.360;2024-01-10T04:38:56;539.47;;;262.65;;
34741;SDS011;20968;42.696;23.360;2024-01-10T04:41:22;340.02;;;194.15;;
34741;SDS011;20968;42.696;23.360;2024-01-10T04:43:47;270.05;;;180.88;;
34741;SDS011;20968;42.696;23.360;2024-01-10T04:46:13;353.20;;;184.93;;
34741;SDS011;20968;42.696;23.360;2024-01-10T04:48:38;366.15;;;204.63;;
34741;SDS011;20968;42.696;23.360;2024-01-10T04:51:04;227.80;;;126.00;;
34741;SDS011;20968;42.696;23.360;2024-01-10T04:53:29;122.40;;;109.07;;
34741;SDS011;20968;42.696;23.360;2024-01-10T04:55:54;508.52;;;241.30;;
34741;SDS011;20968;42.696;23.360;2024-01-10T04:58:20;429.60;;;218.52;;
34741;SDS011;20968;42.696;23.360;2024-01-10T05:00:45;324.30;;;195.57;;
34741;SDS011;20968;42.696;23.360;2024-01-10T05:03:11;360.30;;;230.63;;
34741;SDS011;20968;42.696;23.360;2024-01-10T05:05:36;238.32;;;142.32;;
34741;SDS011;20968;42.696;23.360;2024-01-10T05:08:02;212.15;;;137.50;;
34741;SDS011;20968;42.696;23.360;2024-01-10T05:10:27;243.10;;;134.70;;
34741;SDS011;20968;42.696;23.360;2024-01-10T05:12:53;165.02;;;121.10;;
34741;SDS011;20968;42.696;23.360;2024-01-10T05:15:19;245.70;;;125.15;;
34741;SDS011;20968;42.696;23.360;2024-01-10T05:17:44;210.63;;;119.85;;
34741;SDS011;20968;42.696;23.360;2024-01-10T05:20:09;246.60;;;155.27;;
34741;SDS011;20968;42.696;23.360;2024-01-10T05:22:35;293.15;;;142.50;;
34741;SDS011;20968;42.696;23.360;2024-01-10T05:25:01;199.23;;;120.40;;
34741;SDS011;20968;42.696;23.360;2024-01-10T05:27:27;212.60;;;132.45;;
34741;SDS011;20968;42.696;23.360;2024-01-10T05:29:52;203.30;;;117.80;;
34741;SDS011;20968;42.696;23.360;2024-01-10T05:32:18;244.15;;;169.68;;
34741;SDS011;20968;42.696;23.360;2024-01-10T05:34:44;107.43;;;90.68;;
34741;SDS011;20968;42.696;23.360;2024-01-10T05:37:10;167.52;;;145.10;;
34741;SDS011;20968;42.696;23.360;2024-01-10T05:39:35;179.25;;;131.82;;
34741;SDS011;20968;42.696;23.360;2024-01-10T05:42:01;218.32;;;125.03;;
34741;SDS011;20968;42.696;23.360;2024-01-10T05:44:30;211.05;;;153.02;;
34741;SDS011;20968;42.696;23.360;2024-01-10T05:46:55;231.07;;;140.95;;
34741;SDS011;20968;42.696;23.360;2024-01-10T05:49:24;295.95;;;153.05;;
34741;SDS011;20968;42.696;23.360;2024-01-10T05:51:50;383.73;;;223.60;;
34741;SDS011;20968;42.696;23.360;2024-01-10T05:54:15;271.20;;;150.90;;
34741;SDS011;20968;42.696;23.360;2024-01-10T05:56:42;352.67;;;157.82;;
34741;SDS011;20968;42.696;23.360;2024-01-10T05:59:08;363.65;;;187.07;;
34741;SDS011;20968;42.696;23.360;2024-01-10T06:01:33;291.17;;;163.85;;
34741;SDS011;20968;42.696;23.360;2024-01-10T06:03:59;340.77;;;210.43;;
34741;SDS011;20968;42.696;23.360;2024-01-10T06:06:24;321.42;;;183.48;;
34741;SDS011;20968;42.696;23.360;2024-01-10T06:08:49;342.92;;;199.73;;
34741;SDS011;20968;42.696;23.360;2024-01-10T06:11:15;257.88;;;189.13;;
34741;SDS011;20968;42.696;23.360;2024-01-10T06:13:40;243.93;;;169.48;;
34741;SDS011;20968;42.696;23.360;2024-01-10T06:16:06;344.63;;;214.68;;
34741;SDS011;20968;42.696;23.360;2024-01-10T06:18:32;183.07;;;129.32;;
34741;SDS011;20968;42.696;23.360;2024-01-10T06:20:57;250.50;;;158.25;;
34741;SDS011;20968;42.696;23.360;2024-01-10T06:23:23;258.65;;;147.52;;
34741;SDS011;20968;42.696;23.360;2024-01-10T06:25:48;195.45;;;115.22;;
34741;SDS011;20968;42.696;23.360;2024-01-10T06:28:14;242.80;;;176.93;;
34741;SDS011;20968;42.696;23.360;2024-01-10T06:30:39;260.98;;;159.43;;
34741;SDS011;20968;42.696;23.360;2024-01-10T06:33:04;366.35;;;179.70;;
34741;SDS011;20968;42.696;23.360;2024-01-10T06:35:32;170.57;;;112.88;;
34741;SDS011;20968;42.696;23.360;2024-01-10T06:37:57;190.07;;;145.52;;
34741;SDS011;20968;42.696;23.360;2024-01-10T06:40:23;227.60;;;109.03;;
34741;SDS011;20968;42.696;23.360;2024-01-10T06:42:48;214.73;;;135.93;;
34741;SDS011;20968;42.696;23.360;2024-01-10T06:45:14;280.42;;;161.93;;
34741;SDS011;20968;42.696;23.360;2024-01-10T06:47:39;282.88;;;158.70;;
34741;SDS011;20968;42.696;23.360;2024-01-10T06:50:05;258.75;;;155.55;;
34741;SDS011;20968;42.696;23.360;2024-01-10T06:52:31;357.67;;;180.93;;
34741;SDS011;20968;42.696;23.360;2024-01-10T06:54:57;258.60;;;163.57;;
34741;SDS011;20968;42.696;23.360;2024-01-10T06:57:22;220.35;;;127.38;;
34741;SDS011;20968;42.696;23.360;2024-01-10T06:59:48;342.60;;;228.48;;
34741;SDS011;20968;42.696;23.360;2024-01-10T07:02:13;202.40;;;145.57;;
34741;SDS011;20968;42.696;23.360;2024-01-10T07:04:39;198.55;;;143.23;;
34741;SDS011;20968;42.696;23.360;2024-01-10T07:07:04;246.77;;;113.70;;
34741;SDS011;20968;42.696;23.360;2024-01-10T07:09:30;241.50;;;151.52;;
34741;SDS011;20968;42.696;23.360;2024-01-10T07:11:56;194.40;;;133.70;;
34741;SDS011;20968;42.696;23.360;2024-01-10T07:14:21;138.38;;;94.90;;
34741;SDS011;20968;42.696;23.360;2024-01-10T07:16:47;173.63;;;114.47;;
34741;SDS011;20968;42.696;23.360;2024-01-10T07:19:13;149.73;;;99.05;;
34741;SDS011;20968;42.696;23.360;2024-01-10T07:21:42;230.88;;;105.53;;
34741;SDS011;20968;42.696;23.360;2024-01-10T07:24:09;107.53;;;85.32;;
34741;SDS011;20968;42.696;23.360;2024-01-10T07:26:37;195.68;;;135.27;;
34741;SDS011;20968;42.696;23.360;2024-01-10T07:29:03;135.18;;;99.97;;
34741;SDS011;20968;42.696;23.360;2024-01-10T07:31:29;205.70;;;110.90;;
34741;SDS011;20968;42.696;23.360;2024-01-10T07:33:58;284.70;;;126.47;;
34741;SDS011;20968;42.696;23.360;2024-01-10T07:36:23;185.68;;;102.43;;
34741;SDS011;20968;42.696;23.360;2024-01-10T07:38:54;114.82;;;87.80;;
34741;SDS011;20968;42.696;23.360;2024-01-10T07:41:20;101.78;;;82.90;;
34741;SDS011;20968;42.696;23.360;2024-01-10T07:43:45;156.00;;;100.32;;
34741;SDS011;20968;42.696;23.360;2024-01-10T07:46:10;375.10;;;154.48;;
34741;SDS011;20968;42.696;23.360;2024-01-10T07:48:36;170.20;;;121.80;;
34741;SDS011;20968;42.696;23.360;2024-01-10T07:51:02;276.73;;;143.88;;
34741;SDS011;20968;42.696;23.360;2024-01-10T07:53:29;425.92;;;233.15;;
34741;SDS011;20968;42.696;23.360;2024-01-10T07:55:55;349.80;;;215.75;;
34741;SDS011;20968;42.696;23.360;2024-01-10T07:58:20;256.33;;;149.20;;
34741;SDS011;20968;42.696;23.360;2024-01-10T08:00:46;564.78;;;284.38;;
34741;SDS011;20968;42.696;23.360;2024-01-10T08:03:11;566.10;;;351.40;;
34741;SDS011;20968;42.696;23.360;2024-01-10T08:05:37;556.08;;;318.58;;
34741;SDS011;20968;42.696;23.360;2024-01-10T08:08:02;491.48;;;277.25;;
34741;SDS011;20968;42.696;23.360;2024-01-10T08:10:28;467.30;;;254.82;;
34741;SDS011;20968;42.696;23.360;2024-01-10T08:12:54;459.42;;;250.57;;
34741;SDS011;20968;42.696;23.360;2024-01-10T08:15:19;352.15;;;183.15;;
34741;SDS011;20968;42.696;23.360;2024-01-10T08:17:45;278.17;;;167.95;;
34741;SDS011;20968;42.696;23.360;2024-01-10T08:20:11;317.70;;;187.15;;
34741;SDS011;20968;42.696;23.360;2024-01-10T08:22:39;199.52;;;136.13;;
34741;SDS011;20968;42.696;23.360;2024-01-10T08:25:05;142.40;;;98.22;;
34741;SDS011;20968;42.696;23.360;2024-01-10T08:27:31;107.55;;;64.93;;
34741;SDS011;20968;42.696;23.360;2024-01-10T08:29:58;87.97;;;59.45;;
34741;SDS011;20968;42.696;23.360;2024-01-10T08:32:24;68.55;;;38.13;;
34741;SDS011;20968;42.696;23.360;2024-01-10T08:34:49;88.82;;;57.67;;
34741;SDS011;20968;42.696;23.360;2024-01-10T08:37:15;65.03;;;51.97;;
34741;SDS011;20968;42.696;23.360;2024-01-10T08:39:42;99.40;;;54.30;;
34741;SDS011;20968;42.696;23.360;2024-01-10T08:42:09;104.32;;;59.47;;
34741;SDS011;20968;42.696;23.360;2024-01-10T08:44:35;61.30;;;47.63;;
34741;SDS011;20968;42.696;23.360;2024-01-10T08:47:00;136.45;;;78.38;;
34741;SDS011;20968;42.696;23.360;2024-01-10T08:49:26;151.98;;;73.70;;
34741;SDS011;20968;42.696;23.360;2024-01-10T08:51:51;103.38;;;77.15;;
34741;SDS011;20968;42.696;23.360;2024-01-10T08:54:18;114.10;;;72.88;;
34741;SDS011;20968;42.696;23.360;2024-01-10T08:56:48;101.57;;;66.20;;
34741;SDS011;20968;42.696;23.360;2024-01-10T08:59:13;74.82;;;60.30;;
34741;SDS011;20968;42.696;23.360;2024-01-10T09:01:39;243.48;;;118.00;;
34741;SDS011;20968;42.696;23.360;2024-01-10T09:04:05;202.80;;;128.23;;
34741;SDS011;20968;42.696;23.360;2024-01-10T09:06:31;124.13;;;69.72;;
34741;SDS011;20968;42.696;23.360;2024-01-10T09:08:57;176.63;;;104.78;;
34741;SDS011;20968;42.696;23.360;2024-01-10T09:11:24;93.88;;;69.10;;
34741;SDS011;20968;42.696;23.360;2024-01-10T09:13:50;151.10;;;103.22;;
34741;SDS011;20968;42.696;23.360;2024-01-10T09:16:16;105.53;;;86.57;;
34741;SDS011;20968;42.696;23.360;2024-01-10T09:18:43;123.38;;;78.50;;
34741;SDS011;20968;42.696;23.360;2024-01-10T09:21:09;83.43;;;74.43;;
34741;SDS011;20968;42.696;23.360;2024-01-10T09:23:34;135.25;;;95.05;;
34741;SDS011;20968;42.696;23.360;2024-01-10T09:26:00;115.82;;;71.95;;
34741;SDS011;20968;42.696;23.360;2024-01-10T09:28:25;128.15;;;65.75;;
34741;SDS011;20968;42.696;23.360;2024-01-10T09:30:51;132.30;;;93.93;;
34741;SDS011;20968;42.696;23.360;2024-01-10T09:33:17;113.93;;;75.03;;
34741;SDS011;20968;42.696;23.360;2024-01-10T09:35:42;111.00;;;72.22;;
34741;SDS011;20968;42.696;23.360;2024-01-10T09:38:08;110.55;;;65.13;;
34741;SDS011;20968;42.696;23.360;2024-01-10T09:40:33;63.03;;;49.38;;
34741;SDS011;20968;42.696;23.360;2024-01-10T09:42:59;93.53;;;54.90;;
34741;SDS011;20968;42.696;23.360;2024-01-10T09:45:24;139.93;;;75.18;;
34741;SDS011;20968;42.696;23.360;2024-01-10T09:47:55;80.18;;;58.08;;
34741;SDS011;20968;42.696;23.360;2024-01-10T09:50:21;98.55;;;52.35;;
34741;SDS011;20968;42.696;23.360;2024-01-10T09:55:17;83.07;;;60.50;;
34741;SDS011;20968;42.696;23.360;2024-01-10T09:57:46;63.53;;;41.00;;
34741;SDS011;20968;42.696;23.360;2024-01-10T10:00:12;95.35;;;45.58;;
34741;SDS011;20968;42.696;23.360;2024-01-10T10:02:40;141.52;;;69.07;;
34741;SDS011;20968;42.696;23.360;2024-01-10T10:10:10;77.05;;;50.20;;
34741;SDS011;20968;42.696;23.360;2024-01-10T10:15:13;78.13;;;55.80;;
34741;SDS011;20968;42.696;23.360;2024-01-10T10:17:40;77.45;;;45.47;;
34741;SDS011;20968;42.696;23.360;2024-01-10T10:20:32;71.78;;;48.08;;
34741;SDS011;20968;42.696;23.360;2024-01-10T10:23:03;85.43;;;65.72;;
34741;SDS011;20968;42.696;23.360;2024-01-10T10:25:34;84.05;;;46.60;;
34741;SDS011;20968;42.696;23.360;2024-01-10T10:28:01;92.57;;;54.95;;
34741;SDS011;20968;42.696;23.360;2024-01-10T10:30:27;75.38;;;61.63;;
34741;SDS011;20968;42.696;23.360;2024-01-10T10:32:55;108.70;;;60.47;;
34741;SDS011;20968;42.696;23.360;2024-01-10T10:35:21;82.15;;;50.95;;
34741;SDS011;20968;42.696;23.360;2024-01-10T10:37:50;66.65;;;44.13;;
34741;SDS011;20968;42.696;23.360;2024-01-10T10:40:17;156.20;;;73.55;;
34741;SDS011;20968;42.696;23.360;2024-01-10T10:42:47;86.15;;;47.75;;
34741;SDS011;20968;42.696;23.360;2024-01-10T10:45:19;115.00;;;54.65;;
34741;SDS011;20968;42.696;23.360;2024-01-10T10:47:50;76.68;;;45.80;;
34741;SDS011;20968;42.696;23.360;2024-01-10T10:50:22;118.50;;;66.10;;
34741;SDS011;20968;42.696;23.360;2024-01-10T10:52:48;101.03;;;70.28;;
34741;SDS011;20968;42.696;23.360;2024-01-10T10:55:15;72.97;;;57.70;;
34741;SDS011;20968;42.696;23.360;2024-01-10T10:57:45;99.53;;;58.17;;
34741;SDS011;20968;42.696;23.360;2024-01-10T11:00:19;81.95;;;50.20;;
34741;SDS011;20968;42.696;23.360;2024-01-10T11:02:46;78.00;;;50.40;;
34741;SDS011;20968;42.696;23.360;2024-01-10T11:05:12;132.48;;;62.80;;
34741;SDS011;20968;42.696;23.360;2024-01-10T11:07:42;75.05;;;48.70;;
34741;SDS011;20968;42.696;23.360;2024-01-10T11:10:15;80.38;;;56.03;;
34741;SDS011;20968;42.696;23.360;2024-01-10T11:23:50;94.00;;;57.45;;
34741;SDS011;20968;42.696;23.360;2024-01-10T11:26:19;69.57;;;38.70;;
34741;SDS011;20968;42.696;23.360;2024-01-10T11:28:45;83.85;;;46.22;;
34741;SDS011;20968;42.696;23.360;2024-01-10T11:31:12;85.68;;;42.15;;
34741;SDS011;20968;42.696;23.360;2024-01-10T11:33:39;72.30;;;47.85;;
34741;SDS011;20968;42.696;23.360;2024-01-10T11:36:16;76.32;;;40.47;;
34741;SDS011;20968;42.696;23.360;2024-01-10T11:38:49;82.25;;;44.97;;
34741;SDS011;20968;42.696;23.360;2024-01-10T11:41:49;80.72;;;41.72;;
34741;SDS011;20968;42.696;23.360;2024-01-10T11:46:38;77.20;;;38.28;;
34741;SDS011;20968;42.696;23.360;2024-01-10T11:49:07;72.78;;;40.05;;
34741;SDS011;20968;42.696;23.360;2024-01-10T11:51:38;71.00;;;37.45;;
34741;SDS011;20968;42.696;23.360;2024-01-10T11:54:04;74.53;;;36.25;;
34741;SDS011;20968;42.696;23.360;2024-01-10T11:56:42;76.13;;;40.60;;
34741;SDS011;20968;42.696;23.360;2024-01-10T11:59:10;78.70;;;47.25;;
34741;SDS011;20968;42.696;23.360;2024-01-10T12:01:37;77.90;;;36.58;;
34741;SDS011;20968;42.696;23.360;2024-01-10T12:04:04;77.50;;;36.20;;
34741;SDS011;20968;42.696;23.360;2024-01-10T12:06:30;77.65;;;36.03;;
34741;SDS011;20968;42.696;23.360;2024-01-10T12:08:56;72.72;;;35.97;;
34741;SDS011;20968;42.696;23.360;2024-01-10T12:11:22;72.25;;;32.15;;
34741;SDS011;20968;42.696;23.360;2024-01-10T12:13:48;72.35;;;34.92;;
34741;SDS011;20968;42.696;23.360;2024-01-10T12:16:14;94.85;;;49.33;;
34741;SDS011;20968;42.696;23.360;2024-01-10T12:18:42;85.45;;;37.50;;
34741;SDS011;20968;42.696;23.360;2024-01-10T12:21:08;79.13;;;38.15;;
34741;SDS011;20968;42.696;23.360;2024-01-10T12:23:34;82.00;;;38.25;;
34741;SDS011;20968;42.696;23.360;2024-01-10T12:26:01;81.15;;;44.28;;
34741;SDS011;20968;42.696;23.360;2024-01-10T12:28:29;76.72;;;33.42;;
34741;SDS011;20968;42.696;23.360;2024-01-10T12:30:55;75.28;;;34.15;;
34741;SDS011;20968;42.696;23.360;2024-01-10T12:33:24;76.22;;;36.42;;
34741;SDS011;20968;42.696;23.360;2024-01-10T12:36:09;72.18;;;32.00;;
34741;SDS011;20968;42.696;23.360;2024-01-10T12:38:35;76.28;;;33.50;;
34741;SDS011;20968;42.696;23.360;2024-01-10T12:41:03;74.82;;;34.85;;
34741;SDS011;20968;42.696;23.360;2024-01-10T12:43:29;75.78;;;35.13;;
34741;SDS011;20968;42.696;23.360;2024-01-10T12:48:31;74.43;;;36.20;;
34741;SDS011;20968;42.696;23.360;2024-01-10T12:50:58;74.78;;;36.30;;
34741;SDS011;20968;42.696;23.360;2024-01-10T12:53:28;75.65;;;33.38;;
34741;SDS011;20968;42.696;23.360;2024-01-10T12:55:54;77.93;;;36.67;;
34741;SDS011;20968;42.696;23.360;2024-01-10T12:58:20;74.20;;;37.70;;
34741;SDS011;20968;42.696;23.360;2024-01-10T13:00:46;83.30;;;43.58;;
34741;SDS011;20968;42.696;23.360;2024-01-10T13:03:11;87.40;;;33.33;;
34741;SDS011;20968;42.696;23.360;2024-01-10T13:05:37;81.45;;;37.22;;
34741;SDS011;20968;42.696;23.360;2024-01-10T13:08:03;79.80;;;37.03;;
34741;SDS011;20968;42.696;23.360;2024-01-10T13:10:30;76.95;;;35.67;;
34741;SDS011;20968;42.696;23.360;2024-01-10T13:12:56;76.70;;;38.03;;
34741;SDS011;20968;42.696;23.360;2024-01-10T13:15:21;76.18;;;36.25;;
34741;SDS011;20968;42.696;23.360;2024-01-10T13:17:47;78.50;;;37.28;;
34741;SDS011;20968;42.696;23.360;2024-01-10T13:20:12;76.15;;;39.88;;
34741;SDS011;20968;42.696;23.360;2024-01-10T13:22:37;83.03;;;36.95;;
34741;SDS011;20968;42.696;23.360;2024-01-10T13:25:03;81.93;;;39.15;;
34741;SDS011;20968;42.696;23.360;2024-01-10T13:27:28;90.93;;;42.20;;
34741;SDS011;20968;42.696;23.360;2024-01-10T13:29:54;81.13;;;41.40;;
34741;SDS011;20968;42.696;23.360;2024-01-10T13:32:19;79.88;;;44.00;;
34741;SDS011;20968;42.696;23.360;2024-01-10T13:34:45;80.13;;;40.00;;
34741;SDS011;20968;42.696;23.360;2024-01-10T13:37:11;85.90;;;41.35;;
34741;SDS011;20968;42.696;23.360;2024-01-10T13:39:37;78.20;;;38.67;;
34741;SDS011;20968;42.696;23.360;2024-01-10T13:42:04;69.60;;;37.95;;
34741;SDS011;20968;42.696;23.360;2024-01-10T13:44:29;80.40;;;40.65;;
34741;SDS011;20968;42.696;23.360;2024-01-10T13:46:55;77.22;;;46.05;;
34741;SDS011;20968;42.696;23.360;2024-01-10T13:49:21;74.07;;;40.72;;
34741;SDS011;20968;42.696;23.360;2024-01-10T13:51:46;80.88;;;45.28;;
34741;SDS011;20968;42.696;23.360;2024-01-10T13:54:12;75.47;;;43.60;;
34741;SDS011;20968;42.696;23.360;2024-01-10T13:56:37;87.95;;;43.20;;
34741;SDS011;20968;42.696;23.360;2024-01-10T13:59:04;79.78;;;44.70;;
34741;SDS011;20968;42.696;23.360;2024-01-10T14:01:30;79.93;;;49.78;;
34741;SDS011;20968;42.696;23.360;2024-01-10T14:03:55;77.50;;;42.20;;
34741;SDS011;20968;42.696;23.360;2024-01-10T14:06:20;76.38;;;42.53;;
34741;SDS011;20968;42.696;23.360;2024-01-10T14:08:46;76.30;;;40.47;;
34741;SDS011;20968;42.696;23.360;2024-01-10T14:11:13;77.68;;;39.60;;
34741;SDS011;20968;42.696;23.360;2024-01-10T14:13:39;79.25;;;41.90;;
34741;SDS011;20968;42.696;23.360;2024-01-10T14:16:05;81.93;;;33.28;;